createdAt,value
2023-05-14T00:02:03.106Z,0.40
2023-05-14T00:04:30.728Z,0.30
2023-05-14T00:06:58.827Z,0.40
2023-05-14T00:09:26.273Z,0.38
2023-05-14T00:11:55.055Z,0.30
2023-05-14T00:14:22.955Z,0.40
2023-05-14T00:16:50.411Z,0.30
2023-05-14T00:19:18.246Z,0.40
2023-05-14T00:21:45.782Z,0.43
2023-05-14T00:24:13.189Z,0.20
2023-05-14T00:26:41.718Z,0.38
2023-05-14T00:29:10.592Z,0.30
2023-05-14T00:31:38.221Z,0.30
2023-05-14T00:34:05.815Z,0.30
2023-05-14T00:36:33.550Z,0.35
2023-05-14T00:39:00.965Z,0.40
2023-05-14T00:41:28.387Z,0.30
2023-05-14T00:43:55.789Z,0.30
2023-05-14T00:46:24.667Z,0.30
2023-05-14T00:48:52.173Z,0.30
2023-05-14T00:51:19.790Z,0.30
2023-05-14T00:53:47.579Z,0.30
2023-05-14T00:56:15.374Z,0.30
2023-05-14T00:58:43.058Z,0.50
2023-05-14T01:01:12.080Z,0.30
2023-05-14T01:03:41.060Z,0.30
2023-05-14T01:06:11.013Z,0.40
2023-05-14T01:08:44.257Z,0.30
2023-05-14T01:11:14.768Z,0.35
2023-05-14T01:13:45.449Z,0.30
2023-05-14T01:16:14.654Z,0.30
2023-05-14T01:18:44.650Z,0.35
2023-05-14T01:21:34.043Z,0.30
2023-05-14T01:24:01.618Z,0.30
2023-05-14T01:26:31.419Z,0.30
2023-05-14T01:29:03.974Z,0.30
2023-05-14T01:31:32.465Z,0.30
2023-05-14T01:34:00.782Z,0.30
2023-05-14T01:36:30.914Z,0.40
2023-05-14T01:38:58.467Z,0.40
2023-05-14T01:41:26.386Z,0.30
2023-05-14T01:43:54.067Z,0.20
2023-05-14T01:46:24.015Z,0.40
2023-05-14T01:48:51.535Z,0.35
2023-05-14T01:51:19.169Z,0.30
2023-05-14T01:53:47.978Z,0.40
2023-05-14T01:56:15.436Z,0.40
2023-05-14T01:58:42.921Z,0.40
2023-05-14T02:01:10.443Z,0.32
2023-05-14T02:03:37.972Z,0.30
2023-05-14T02:06:05.598Z,0.38
2023-05-14T02:08:33.092Z,0.32
2023-05-14T02:11:01.871Z,0.38
2023-05-14T02:13:29.346Z,0.30
2023-05-14T02:15:56.778Z,0.30
2023-05-14T02:18:24.422Z,0.30
2023-05-14T02:20:52.060Z,0.30
2023-05-14T02:23:23.753Z,0.40
2023-05-14T02:25:55.721Z,0.40
2023-05-14T02:28:24.509Z,0.20
2023-05-14T02:30:52.053Z,0.30
2023-05-14T02:33:19.544Z,0.40
2023-05-14T02:35:47.071Z,0.30
2023-05-14T02:38:14.927Z,0.35
2023-05-14T02:40:42.365Z,0.40
2023-05-14T02:43:09.773Z,0.30
2023-05-14T02:45:38.560Z,0.30
2023-05-14T02:48:06.253Z,0.40
2023-05-14T02:50:33.920Z,0.30
2023-05-14T02:53:01.728Z,0.30
2023-05-14T02:55:29.181Z,0.40
2023-05-14T02:57:56.744Z,0.30
2023-05-14T03:00:24.753Z,0.40
2023-05-14T03:02:54.163Z,0.40
2023-05-14T03:05:22.293Z,0.30
2023-05-14T03:07:50.302Z,0.40
2023-05-14T03:10:17.733Z,0.30
2023-05-14T03:12:45.224Z,0.30
2023-05-14T03:15:12.955Z,0.30
2023-05-14T03:17:40.474Z,0.30
2023-05-14T03:20:10.138Z,0.50
2023-05-14T03:22:37.659Z,0.40
2023-05-14T03:25:05.460Z,0.50
2023-05-14T03:27:33.550Z,0.32
2023-05-14T03:30:02.210Z,0.30
2023-05-14T03:32:30.163Z,0.30
2023-05-14T03:34:57.807Z,0.50
2023-05-14T03:37:26.689Z,0.38
2023-05-14T03:39:54.152Z,0.40
2023-05-14T03:42:21.583Z,0.40
2023-05-14T03:44:49.001Z,0.35
2023-05-14T03:47:16.400Z,0.40
2023-05-14T03:49:43.885Z,0.30
2023-05-14T03:52:13.205Z,0.40
2023-05-14T03:54:41.997Z,0.30
2023-05-14T03:57:09.412Z,0.38
2023-05-14T03:59:36.932Z,0.50
2023-05-14T04:02:04.578Z,0.40
2023-05-14T04:04:32.039Z,0.40
2023-05-14T04:06:59.594Z,0.30
2023-05-14T04:09:29.350Z,0.40
2023-05-14T04:11:58.931Z,0.40
2023-05-14T04:14:26.358Z,0.30
2023-05-14T04:16:53.795Z,0.40
2023-05-14T04:19:22.121Z,0.40
2023-05-14T04:21:49.580Z,0.40
2023-05-14T04:24:17.853Z,0.40
2023-05-14T04:26:45.358Z,0.30
2023-05-14T04:29:14.102Z,0.30
2023-05-14T04:31:42.049Z,0.30
2023-05-14T04:34:09.679Z,0.38
2023-05-14T04:36:37.196Z,0.30
2023-05-14T04:39:05.920Z,0.40
2023-05-14T04:41:33.377Z,0.30
2023-05-14T04:44:01.708Z,0.40
2023-05-14T04:46:30.563Z,0.30
2023-05-14T04:48:58.031Z,0.40
2023-05-14T04:51:26.293Z,0.30
2023-05-14T04:53:53.724Z,0.30
2023-05-14T04:56:21.514Z,0.30
2023-05-14T04:58:49.024Z,0.30
2023-05-14T05:01:16.470Z,0.40
2023-05-14T05:03:45.449Z,0.25
2023-05-14T05:06:12.996Z,0.30
2023-05-14T05:08:41.378Z,0.40
2023-05-14T05:11:08.822Z,0.40
2023-05-14T05:13:36.246Z,0.40
2023-05-14T05:16:03.774Z,0.50
2023-05-14T05:18:31.278Z,0.30
2023-05-14T05:21:00.079Z,0.30
2023-05-14T05:23:28.218Z,0.30
2023-05-14T05:25:55.698Z,0.30
2023-05-14T05:28:23.274Z,0.40
2023-05-14T05:30:50.704Z,0.30
2023-05-14T05:33:18.135Z,0.30
2023-05-14T05:35:45.539Z,0.40
2023-05-14T05:38:15.434Z,0.32
2023-05-14T05:40:42.894Z,0.47
2023-05-14T05:43:10.298Z,0.40
2023-05-14T05:45:37.736Z,0.50
2023-05-14T05:48:05.530Z,0.50
2023-05-14T05:50:33.078Z,0.40
2023-05-14T05:53:00.579Z,0.30
2023-05-14T05:55:29.386Z,0.40
2023-05-14T05:57:56.824Z,0.30
2023-05-14T06:00:25.026Z,0.40
2023-05-14T06:02:53.481Z,0.60
2023-05-14T06:05:20.963Z,0.40
2023-05-14T06:07:48.545Z,0.40
2023-05-14T06:10:16.070Z,0.40
2023-05-14T06:12:44.810Z,0.43
2023-05-14T06:15:13.018Z,0.30
2023-05-14T06:17:40.563Z,0.32
2023-05-14T06:20:08.918Z,0.40
2023-05-14T06:22:36.337Z,0.35
2023-05-14T06:25:03.856Z,0.32
2023-05-14T06:27:31.426Z,0.38
2023-05-14T06:30:00.252Z,0.30
2023-05-14T06:32:28.088Z,0.40
2023-05-14T06:34:55.523Z,0.30
2023-05-14T06:37:22.938Z,0.40
2023-05-14T06:39:50.761Z,0.30
2023-05-14T06:42:18.297Z,0.40
2023-05-14T06:44:46.092Z,0.30
2023-05-14T06:47:14.855Z,0.38
2023-05-14T06:49:42.363Z,0.30
2023-05-14T06:52:09.813Z,0.40
2023-05-14T06:54:37.253Z,0.50
2023-05-14T06:57:04.889Z,0.40
2023-05-14T06:59:32.430Z,0.40
2023-05-14T07:01:59.922Z,0.30
2023-05-14T07:04:28.762Z,0.30
2023-05-14T07:06:56.204Z,0.30
2023-05-14T07:09:23.654Z,0.30
2023-05-14T07:11:51.058Z,0.40
2023-05-14T07:14:18.728Z,0.35
2023-05-14T07:16:47.030Z,0.30
2023-05-14T07:19:14.632Z,0.30
2023-05-14T07:21:43.739Z,0.30
2023-05-14T07:24:11.804Z,0.32
2023-05-14T07:26:39.258Z,0.20
2023-05-14T07:29:07.160Z,0.30
2023-05-14T07:31:34.584Z,0.30
2023-05-14T07:34:02.180Z,0.20
2023-05-14T07:36:29.620Z,0.30
2023-05-14T07:38:58.574Z,0.30
2023-05-14T07:41:25.996Z,0.20
2023-05-14T07:43:53.470Z,0.22
2023-05-14T07:46:21.011Z,0.20
2023-05-14T07:48:48.487Z,0.20
2023-05-14T07:51:15.960Z,0.30
2023-05-14T07:53:43.488Z,0.20
2023-05-14T07:56:12.332Z,0.20
2023-05-14T07:58:39.774Z,0.30
2023-05-14T08:01:09.087Z,0.20
2023-05-14T08:03:36.727Z,0.30
2023-05-14T08:06:04.620Z,0.30
2023-05-14T08:08:32.198Z,0.30
2023-05-14T08:10:59.723Z,0.30
2023-05-14T08:13:28.570Z,0.20
2023-05-14T08:15:56.072Z,0.20
2023-05-14T08:18:23.524Z,0.28
2023-05-14T08:20:51.238Z,0.30
2023-05-14T08:23:18.725Z,0.20
2023-05-14T08:25:46.142Z,0.20
2023-05-14T08:28:13.596Z,0.30
2023-05-14T08:30:42.496Z,0.20
2023-05-14T08:33:10.069Z,0.30
2023-05-14T08:35:37.566Z,0.30
2023-05-14T08:38:05.006Z,0.20
2023-05-14T08:40:32.546Z,0.30
2023-05-14T08:43:01.597Z,0.20
2023-05-14T08:45:31.448Z,0.30
2023-05-14T08:48:01.740Z,0.30
2023-05-14T08:50:31.072Z,0.30
2023-05-14T08:52:58.734Z,0.22
2023-05-14T08:55:27.454Z,0.40
2023-05-14T08:57:54.939Z,0.43
2023-05-14T09:00:23.084Z,0.28
2023-05-14T09:02:51.839Z,0.40
2023-05-14T09:05:21.815Z,0.30
2023-05-14T09:07:49.308Z,0.30
2023-05-14T09:10:17.198Z,0.30
2023-05-14T09:12:44.628Z,0.30
2023-05-14T09:15:12.129Z,0.20
2023-05-14T09:17:39.734Z,0.20
2023-05-14T09:20:07.882Z,0.30
2023-05-14T09:22:36.693Z,0.30
2023-05-14T09:25:05.321Z,0.28
2023-05-14T09:27:33.308Z,0.30
2023-05-14T09:30:07.729Z,0.30
2023-05-14T09:32:39.172Z,0.22
2023-05-14T09:35:14.707Z,0.20
2023-05-14T09:37:44.269Z,0.25
2023-05-14T09:40:12.096Z,0.20
2023-05-14T09:42:39.727Z,0.20
2023-05-14T09:45:08.290Z,0.20
2023-05-14T09:47:35.800Z,0.30
2023-05-14T09:50:03.314Z,0.30
2023-05-14T09:52:31.132Z,0.20
2023-05-14T09:55:00.741Z,0.30
2023-05-14T09:57:28.187Z,0.30
2023-05-14T09:59:55.652Z,0.20
2023-05-14T10:02:25.091Z,0.30
2023-05-14T10:04:54.516Z,0.20
2023-05-14T10:07:23.905Z,0.30
2023-05-14T10:09:57.164Z,0.30
2023-05-14T10:12:27.431Z,0.22
2023-05-14T10:14:55.770Z,0.25
2023-05-14T10:17:23.989Z,0.30
2023-05-14T10:19:53.359Z,0.20
2023-05-14T10:22:23.481Z,0.30
2023-05-14T10:24:52.441Z,0.30
2023-05-14T10:27:21.162Z,0.20
2023-05-14T10:29:53.693Z,0.25
2023-05-14T10:32:21.732Z,0.22
2023-05-14T10:34:49.175Z,0.22
2023-05-14T10:37:17.229Z,0.20
2023-05-14T10:39:45.959Z,0.30
2023-05-14T10:42:14.059Z,0.30
2023-05-14T10:44:43.963Z,0.25
2023-05-14T10:47:12.773Z,0.20
2023-05-14T10:49:43.860Z,0.30
2023-05-14T10:52:11.836Z,0.25
2023-05-14T10:54:39.594Z,0.30
2023-05-14T10:57:10.865Z,0.20
2023-05-14T10:59:38.267Z,0.20
2023-05-14T11:02:06.197Z,0.20
2023-05-14T11:04:34.976Z,0.20
2023-05-14T11:07:02.775Z,0.20
2023-05-14T11:09:30.362Z,0.13
2023-05-14T11:11:57.805Z,0.20
2023-05-14T11:14:25.214Z,0.20
2023-05-14T11:16:52.894Z,0.20
2023-05-14T11:19:22.498Z,0.10
2023-05-14T11:21:51.338Z,0.17
2023-05-14T11:24:18.786Z,0.20
2023-05-14T11:26:46.279Z,0.20
2023-05-14T11:29:13.751Z,0.10
2023-05-14T11:31:41.589Z,0.20
2023-05-14T11:34:09.922Z,0.20
2023-05-14T11:36:37.362Z,0.20
2023-05-14T11:39:06.645Z,0.20
2023-05-14T11:41:34.096Z,0.10
2023-05-14T11:44:01.684Z,0.20
2023-05-14T11:46:30.883Z,0.15
2023-05-14T11:48:58.395Z,0.20
2023-05-14T11:51:25.861Z,0.10
2023-05-14T11:53:55.048Z,0.13
2023-05-14T11:56:23.821Z,0.10
2023-05-14T11:58:56.497Z,0.15
2023-05-14T12:01:24.072Z,0.20
2023-05-14T12:03:51.814Z,0.10
2023-05-14T12:06:19.783Z,0.20
2023-05-14T12:08:48.592Z,0.20
2023-05-14T12:11:16.100Z,0.17
2023-05-14T12:13:44.854Z,0.10
2023-05-14T12:16:12.409Z,0.20
2023-05-14T12:18:39.954Z,0.20
2023-05-14T12:21:08.763Z,0.15
2023-05-14T12:23:36.174Z,0.10
2023-05-14T12:26:05.950Z,0.10
2023-05-14T12:28:36.069Z,0.20
2023-05-14T12:31:06.845Z,0.10
2023-05-14T12:33:34.421Z,0.20
2023-05-14T12:36:19.869Z,0.20
2023-05-14T12:38:48.457Z,0.13
2023-05-14T12:41:15.865Z,0.20
2023-05-14T12:43:44.248Z,0.10
2023-05-14T12:46:13.082Z,0.10
2023-05-14T12:48:40.505Z,0.10
2023-05-14T12:51:07.918Z,0.20
2023-05-14T12:53:35.951Z,0.10
2023-05-14T12:56:03.474Z,0.10
2023-05-14T12:58:30.898Z,0.13
2023-05-14T13:00:58.356Z,0.10
2023-05-14T13:03:27.359Z,0.10
2023-05-14T13:05:55.058Z,0.10
2023-05-14T13:08:24.843Z,0.10
2023-05-14T13:10:52.296Z,0.10
2023-05-14T13:13:19.866Z,0.20
2023-05-14T13:15:47.563Z,0.10
2023-05-14T13:18:15.488Z,0.10
2023-05-14T13:20:44.284Z,0.10
2023-05-14T13:23:11.726Z,0.10
2023-05-14T13:25:39.265Z,0.20
2023-05-14T13:28:06.771Z,0.10
2023-05-14T13:30:34.189Z,0.20
2023-05-14T13:33:01.736Z,0.10
2023-05-14T13:35:29.337Z,0.10
2023-05-14T13:37:58.148Z,0.10
2023-05-14T13:40:25.614Z,0.10
2023-05-14T13:42:53.044Z,0.10
2023-05-14T13:45:20.590Z,0.20
2023-05-14T13:47:49.517Z,0.20
2023-05-14T13:50:17.602Z,0.10
2023-05-14T13:52:45.015Z,0.10
2023-05-14T13:55:13.821Z,0.10
2023-05-14T13:57:41.719Z,0.20
2023-05-14T14:00:09.808Z,0.20
2023-05-14T14:02:37.330Z,0.10
2023-05-14T14:05:05.306Z,0.20
2023-05-14T14:07:32.777Z,0.10
2023-05-14T14:10:01.657Z,0.20
2023-05-14T14:12:31.093Z,0.10
2023-05-14T14:14:58.573Z,0.20
2023-05-14T14:17:26.007Z,0.10
2023-05-14T14:19:53.422Z,0.10
2023-05-14T14:22:20.920Z,0.20
2023-05-14T14:24:48.363Z,0.15
2023-05-14T14:27:15.881Z,0.10
2023-05-14T14:29:44.639Z,0.20
2023-05-14T14:32:12.047Z,0.10
2023-05-14T14:34:39.567Z,0.20
2023-05-14T14:37:06.956Z,0.10
2023-05-14T14:39:35.093Z,0.20
2023-05-14T14:42:02.769Z,0.20
2023-05-14T14:44:30.195Z,0.20
2023-05-14T14:46:59.016Z,0.10
2023-05-14T14:49:27.688Z,0.20
2023-05-14T14:51:55.172Z,0.20
2023-05-14T14:54:22.693Z,0.20
2023-05-14T14:56:52.312Z,0.20
2023-05-14T14:59:19.740Z,0.17
2023-05-14T15:01:47.200Z,0.10
2023-05-14T15:04:16.009Z,0.20
2023-05-14T15:06:43.405Z,0.10
2023-05-14T15:09:10.900Z,0.20
2023-05-14T15:11:38.433Z,0.10
2023-05-14T15:14:05.862Z,0.13
2023-05-14T15:16:35.396Z,0.20
2023-05-14T15:19:03.347Z,0.20
2023-05-14T15:21:32.390Z,0.10
2023-05-14T15:23:59.823Z,0.20
2023-05-14T15:26:27.303Z,0.10
2023-05-14T15:28:54.740Z,0.20
2023-05-14T15:31:22.214Z,0.10
2023-05-14T15:33:49.635Z,0.20
2023-05-14T15:36:17.059Z,0.10
2023-05-14T15:38:45.909Z,0.20
2023-05-14T15:41:13.393Z,0.15
2023-05-14T15:43:40.835Z,0.20
2023-05-14T15:46:08.277Z,0.20
2023-05-14T15:48:35.852Z,0.30
2023-05-14T15:51:03.351Z,0.20
2023-05-14T15:53:30.802Z,0.30
2023-05-14T15:56:00.334Z,0.30
2023-05-14T15:58:27.900Z,0.30
2023-05-14T16:00:55.921Z,0.30
2023-05-14T16:03:23.426Z,0.30
2023-05-14T16:05:50.969Z,0.30
2023-05-14T16:08:18.395Z,0.38
2023-05-14T16:10:45.886Z,0.20
2023-05-14T16:13:14.657Z,0.30
2023-05-14T16:15:42.170Z,0.30
2023-05-14T16:18:09.753Z,0.30
2023-05-14T16:20:37.223Z,0.20
2023-05-14T16:23:04.652Z,0.40
2023-05-14T16:25:32.150Z,0.30
2023-05-14T16:27:59.619Z,0.30
2023-05-14T16:30:28.392Z,0.30
2023-05-14T16:32:55.852Z,0.30
2023-05-14T16:35:23.326Z,0.30
2023-05-14T16:37:50.834Z,0.30
2023-05-14T16:40:19.591Z,0.30
2023-05-14T16:42:49.194Z,0.40
2023-05-14T16:45:16.886Z,0.30
2023-05-14T16:47:45.817Z,0.30
2023-05-14T16:50:13.244Z,0.30
2023-05-14T16:52:40.753Z,0.30
2023-05-14T16:55:08.536Z,0.30
2023-05-14T16:57:35.952Z,0.30
2023-05-14T17:00:06.114Z,0.30
2023-05-14T17:02:33.765Z,0.30
2023-05-14T17:05:03.860Z,0.20
2023-05-14T17:07:32.070Z,0.30
2023-05-14T17:10:00.543Z,0.30
2023-05-14T17:12:28.069Z,0.30
2023-05-14T17:14:55.556Z,0.30
2023-05-14T17:17:23.036Z,0.30
2023-05-14T17:19:50.525Z,0.30
2023-05-14T17:22:19.306Z,0.20
2023-05-14T17:24:46.709Z,0.30
2023-05-14T17:27:15.961Z,0.30
2023-05-14T17:29:44.400Z,0.30
2023-05-14T17:32:11.808Z,0.30
2023-05-14T17:34:39.271Z,0.40
2023-05-14T17:37:06.745Z,0.30
2023-05-14T17:39:35.627Z,0.30
2023-05-14T17:42:03.556Z,0.30
2023-05-14T17:44:31.279Z,0.28
2023-05-14T17:47:00.249Z,0.30
2023-05-14T17:49:27.730Z,0.25
2023-05-14T17:51:55.309Z,0.30
2023-05-14T17:54:22.749Z,0.30
2023-05-14T17:56:51.773Z,0.30
2023-05-14T17:59:19.329Z,0.30
2023-05-14T18:01:46.829Z,0.20
2023-05-14T18:04:14.861Z,0.20
2023-05-14T18:06:42.456Z,0.30
2023-05-14T18:09:09.880Z,0.20
2023-05-14T18:11:37.326Z,0.30
2023-05-14T18:14:06.064Z,0.30
2023-05-14T18:16:33.670Z,0.30
2023-05-14T18:19:01.232Z,0.30
2023-05-14T18:21:28.741Z,0.20
2023-05-14T18:23:56.202Z,0.30
2023-05-14T18:26:23.624Z,0.30
2023-05-14T18:28:51.099Z,0.30
2023-05-14T18:31:19.892Z,0.30
2023-05-14T18:33:47.419Z,0.30
2023-05-14T18:36:14.860Z,0.25
2023-05-14T18:38:42.296Z,0.30
2023-05-14T18:41:09.725Z,0.30
2023-05-14T18:43:37.179Z,0.30
2023-05-14T18:46:04.680Z,0.30
2023-05-14T18:48:33.825Z,0.22
2023-05-14T18:51:01.759Z,0.30
2023-05-14T18:53:29.576Z,0.30
2023-05-14T18:55:56.987Z,0.30
2023-05-14T18:58:24.425Z,0.30
2023-05-14T19:00:52.777Z,0.30
2023-05-14T19:03:20.788Z,0.30
2023-05-14T19:05:50.553Z,0.30
2023-05-14T19:08:18.036Z,0.30
2023-05-14T19:10:45.476Z,0.20
2023-05-14T19:13:12.902Z,0.30
2023-05-14T19:15:40.480Z,0.30
2023-05-14T19:18:07.957Z,0.30
2023-05-14T19:20:35.491Z,0.30
2023-05-14T19:23:04.280Z,0.30
2023-05-14T19:25:31.682Z,0.30
2023-05-14T19:28:01.406Z,0.40
2023-05-14T19:30:28.943Z,0.30
2023-05-14T19:32:56.392Z,0.30
2023-05-14T19:35:24.039Z,0.30
2023-05-14T19:37:51.635Z,0.32
2023-05-14T19:40:20.572Z,0.30
2023-05-14T19:42:48.032Z,0.30
2023-05-14T19:45:15.496Z,0.30
2023-05-14T19:47:42.993Z,0.30
2023-05-14T19:50:11.260Z,0.30
2023-05-14T19:52:38.720Z,0.30
2023-05-14T19:55:06.332Z,0.30
2023-05-14T19:57:35.127Z,0.30
2023-05-14T20:00:04.137Z,0.30
2023-05-14T20:02:40.757Z,0.30
2023-05-14T20:05:10.595Z,0.30
2023-05-14T20:07:40.145Z,0.40
2023-05-14T20:10:08.433Z,0.30
2023-05-14T20:12:37.258Z,0.30
2023-05-14T20:15:05.125Z,0.30
2023-05-14T20:17:32.565Z,0.30
2023-05-14T20:20:00.054Z,0.40
2023-05-14T20:22:27.495Z,0.30
2023-05-14T20:24:54.985Z,0.30
2023-05-14T20:27:22.533Z,0.30
2023-05-14T20:29:53.888Z,0.30
2023-05-14T20:32:24.662Z,0.30
2023-05-14T20:34:52.205Z,0.30
2023-05-14T20:37:20.210Z,0.30
2023-05-14T20:39:47.676Z,0.30
2023-05-14T20:42:15.147Z,0.30
2023-05-14T20:44:42.546Z,0.30
2023-05-14T20:47:12.635Z,0.30
2023-05-14T20:49:40.127Z,0.32
2023-05-14T20:52:07.638Z,0.30
2023-05-14T20:54:35.138Z,0.30
2023-05-14T20:57:02.996Z,0.30
2023-05-14T20:59:30.421Z,0.30
2023-05-14T21:01:58.040Z,0.35
2023-05-14T21:04:27.076Z,0.40
2023-05-14T21:06:54.976Z,0.30
2023-05-14T21:09:23.637Z,0.38
2023-05-14T21:11:51.295Z,0.38
2023-05-14T21:14:18.719Z,0.40
2023-05-14T21:16:46.223Z,0.30
2023-05-14T21:19:15.442Z,0.28
2023-05-14T21:21:44.435Z,0.40
2023-05-14T21:24:11.867Z,0.30
2023-05-14T21:26:40.338Z,0.35
2023-05-14T21:29:07.789Z,0.30
2023-05-14T21:31:35.286Z,0.30
2023-05-14T21:34:02.803Z,0.40
2023-05-14T21:36:30.214Z,0.30
2023-05-14T21:38:58.995Z,0.30
2023-05-14T21:41:26.497Z,0.40
2023-05-14T21:43:53.909Z,0.40
2023-05-14T21:46:21.343Z,0.25
2023-05-14T21:48:48.874Z,0.32
2023-05-14T21:51:16.349Z,0.30
2023-05-14T21:53:43.778Z,0.30
2023-05-14T21:56:12.761Z,0.30
2023-05-14T21:58:40.247Z,0.30
2023-05-14T22:01:08.929Z,0.30
2023-05-14T22:03:36.569Z,0.30
2023-05-14T22:06:04.513Z,0.32
2023-05-14T22:08:32.219Z,0.40
2023-05-14T22:10:59.724Z,0.30
2023-05-14T22:13:28.524Z,0.30
2023-05-14T22:16:05.331Z,0.20
2023-05-14T22:18:39.575Z,0.30
2023-05-14T22:21:07.180Z,0.30
2023-05-14T22:23:34.616Z,0.32
2023-05-14T22:26:02.070Z,0.30
2023-05-14T22:28:30.864Z,0.30
2023-05-14T22:30:59.610Z,0.32
2023-05-14T22:33:27.190Z,0.40
2023-05-14T22:35:54.611Z,0.30
2023-05-14T22:38:22.015Z,0.30
2023-05-14T22:40:49.464Z,0.30
2023-05-14T22:43:17.054Z,0.30
2023-05-14T22:45:45.820Z,0.30
2023-05-14T22:48:13.234Z,0.30
2023-05-14T22:50:40.674Z,0.40
2023-05-14T22:53:08.134Z,0.30
2023-05-14T22:55:36.113Z,0.32
2023-05-14T22:58:03.924Z,0.40
2023-05-14T23:00:31.343Z,0.40
2023-05-14T23:03:00.320Z,0.20
2023-05-14T23:05:27.790Z,0.30
2023-05-14T23:07:55.423Z,0.40
2023-05-14T23:10:22.848Z,0.38
2023-05-14T23:12:50.285Z,0.30
2023-05-14T23:15:17.852Z,0.30
2023-05-14T23:17:45.373Z,0.40
2023-05-14T23:20:14.322Z,0.32
2023-05-14T23:22:41.789Z,0.30
2023-05-14T23:25:09.742Z,0.30
2023-05-14T23:27:37.191Z,0.40
2023-05-14T23:30:04.841Z,0.40
2023-05-14T23:32:32.278Z,0.30
2023-05-14T23:34:59.711Z,0.30
2023-05-14T23:37:28.502Z,0.30
2023-05-14T23:39:55.995Z,0.30
2023-05-14T23:42:24.673Z,0.30
2023-05-14T23:44:52.175Z,0.40
2023-05-14T23:47:19.641Z,0.32
2023-05-14T23:49:47.131Z,0.30
2023-05-14T23:52:14.546Z,0.38
2023-05-14T23:54:43.308Z,0.40
2023-05-14T23:57:12.347Z,0.40
2023-05-14T23:59:41.100Z,0.38
